sensor_id;sensor_type;location;lat;lon;timestamp;temperature;humidity
75821;DHT22;64454;51.984;9.838;2022-12-05T00:00:24;4.20;99.90
75821;DHT22;64454;51.984;9.838;2022-12-05T00:02:53;4.30;99.90
75821;DHT22;64454;51.984;9.838;2022-12-05T00:05:20;4.30;99.90
75821;DHT22;64454;51.984;9.838;2022-12-05T00:07:47;4.20;99.90
75821;DHT22;64454;51.984;9.838;2022-12-05T00:10:14;4.10;99.90
75821;DHT22;64454;51.984;9.838;2022-12-05T00:12:41;4.20;99.90
75821;DHT22;64454;51.984;9.838;2022-12-05T00:15:09;4.20;99.90
75821;DHT22;64454;51.984;9.838;2022-12-05T00:17:37;4.20;99.90
75821;DHT22;64454;51.984;9.838;2022-12-05T00:20:08;4.30;99.90
75821;DHT22;64454;51.984;9.838;2022-12-05T00:22:36;4.20;99.90
75821;DHT22;64454;51.984;9.838;2022-12-05T00:25:04;4.30;99.90
75821;DHT22;64454;51.984;9.838;2022-12-05T00:27:33;4.40;99.90
75821;DHT22;64454;51.984;9.838;2022-12-05T00:30:00;4.30;99.90
75821;DHT22;64454;51.984;9.838;2022-12-05T00:32:28;4.20;99.90
75821;DHT22;64454;51.984;9.838;2022-12-05T00:34:56;4.30;99.90
75821;DHT22;64454;51.984;9.838;2022-12-05T00:37:24;4.20;99.90
75821;DHT22;64454;51.984;9.838;2022-12-05T00:39:51;4.30;99.90
75821;DHT22;64454;51.984;9.838;2022-12-05T00:42:18;4.30;99.90
75821;DHT22;64454;51.984;9.838;2022-12-05T00:44:45;4.40;99.90
75821;DHT22;64454;51.984;9.838;2022-12-05T00:47:14;4.30;99.90
75821;DHT22;64454;51.984;9.838;2022-12-05T00:49:41;4.20;99.90
75821;DHT22;64454;51.984;9.838;2022-12-05T00:52:08;4.30;99.90
75821;DHT22;64454;51.984;9.838;2022-12-05T00:54:36;4.30;99.90
75821;DHT22;64454;51.984;9.838;2022-12-05T00:57:04;4.30;99.90
75821;DHT22;64454;51.984;9.838;2022-12-05T00:59:31;4.30;99.90
75821;DHT22;64454;51.984;9.838;2022-12-05T01:01:58;4.40;99.90
75821;DHT22;64454;51.984;9.838;2022-12-05T01:04:25;4.50;99.90
75821;DHT22;64454;51.984;9.838;2022-12-05T01:06:54;4.50;99.90
75821;DHT22;64454;51.984;9.838;2022-12-05T01:09:23;4.50;99.90
75821;DHT22;64454;51.984;9.838;2022-12-05T01:11:52;4.50;99.90
75821;DHT22;64454;51.984;9.838;2022-12-05T01:14:22;4.50;99.90
75821;DHT22;64454;51.984;9.838;2022-12-05T01:16:51;4.50;99.90
75821;DHT22;64454;51.984;9.838;2022-12-05T01:19:22;4.60;99.90
75821;DHT22;64454;51.984;9.838;2022-12-05T01:21:50;4.60;99.90
75821;DHT22;64454;51.984;9.838;2022-12-05T01:24:19;4.60;99.90
75821;DHT22;64454;51.984;9.838;2022-12-05T01:26:48;4.70;99.90
75821;DHT22;64454;51.984;9.838;2022-12-05T01:29:18;4.70;99.90
75821;DHT22;64454;51.984;9.838;2022-12-05T01:31:47;4.80;94.80
75821;DHT22;64454;51.984;9.838;2022-12-05T01:34:16;4.60;90.60
75821;DHT22;64454;51.984;9.838;2022-12-05T01:36:44;4.70;98.90
75821;DHT22;64454;51.984;9.838;2022-12-05T01:39:11;4.80;99.90
75821;DHT22;64454;51.984;9.838;2022-12-05T01:41:41;4.90;99.90
75821;DHT22;64454;51.984;9.838;2022-12-05T01:47:28;4.80;88.30
75821;DHT22;64454;51.984;9.838;2022-12-05T01:49:57;4.70;85.20
75821;DHT22;64454;51.984;9.838;2022-12-05T01:52:26;4.70;80.90
75821;DHT22;64454;51.984;9.838;2022-12-05T01:54:59;4.70;88.20
75821;DHT22;64454;51.984;9.838;2022-12-05T01:57:28;4.70;89.70
75821;DHT22;64454;51.984;9.838;2022-12-05T02:00:01;4.60;89.50
75821;DHT22;64454;51.984;9.838;2022-12-05T02:02:31;4.60;94.60
75821;DHT22;64454;51.984;9.838;2022-12-05T02:05:02;4.60;99.90
75821;DHT22;64454;51.984;9.838;2022-12-05T02:07:33;4.70;99.90
75821;DHT22;64454;51.984;9.838;2022-12-05T02:10:02;4.70;97.80
75821;DHT22;64454;51.984;9.838;2022-12-05T02:12:29;4.70;99.90
75821;DHT22;64454;51.984;9.838;2022-12-05T02:15:11;4.70;99.90
75821;DHT22;64454;51.984;9.838;2022-12-05T02:17:53;4.60;99.90
75821;DHT22;64454;51.984;9.838;2022-12-05T02:20:36;4.70;99.90
75821;DHT22;64454;51.984;9.838;2022-12-05T02:23:41;4.80;99.90
75821;DHT22;64454;51.984;9.838;2022-12-05T02:26:50;4.90;99.50
75821;DHT22;64454;51.984;9.838;2022-12-05T02:32:50;4.90;98.80
75821;DHT22;64454;51.984;9.838;2022-12-05T02:35:33;5.00;94.60
75821;DHT22;64454;51.984;9.838;2022-12-05T02:38:19;5.00;89.30
75821;DHT22;64454;51.984;9.838;2022-12-05T02:41:00;5.00;81.00
75821;DHT22;64454;51.984;9.838;2022-12-05T02:43:36;5.10;83.80
75821;DHT22;64454;51.984;9.838;2022-12-05T02:46:11;5.10;79.70
75821;DHT22;64454;51.984;9.838;2022-12-05T02:48:44;5.10;76.00
75821;DHT22;64454;51.984;9.838;2022-12-05T02:51:16;5.00;67.50
75821;DHT22;64454;51.984;9.838;2022-12-05T02:53:47;5.10;77.60
75821;DHT22;64454;51.984;9.838;2022-12-05T02:56:16;5.00;72.90
75821;DHT22;64454;51.984;9.838;2022-12-05T02:58:48;5.00;75.80
75821;DHT22;64454;51.984;9.838;2022-12-05T03:01:22;5.10;74.00
75821;DHT22;64454;51.984;9.838;2022-12-05T03:03:51;5.00;73.70
75821;DHT22;64454;51.984;9.838;2022-12-05T03:06:23;5.10;81.70
75821;DHT22;64454;51.984;9.838;2022-12-05T03:08:56;5.10;77.20
75821;DHT22;64454;51.984;9.838;2022-12-05T03:11:29;5.10;78.70
75821;DHT22;64454;51.984;9.838;2022-12-05T03:14:04;5.10;80.10
75821;DHT22;64454;51.984;9.838;2022-12-05T03:16:41;5.20;73.40
75821;DHT22;64454;51.984;9.838;2022-12-05T03:19:16;5.20;64.00
75821;DHT22;64454;51.984;9.838;2022-12-05T03:21:50;5.30;59.30
75821;DHT22;64454;51.984;9.838;2022-12-05T03:24:20;5.30;54.90
75821;DHT22;64454;51.984;9.838;2022-12-05T03:26:54;5.40;51.00
75821;DHT22;64454;51.984;9.838;2022-12-05T03:29:32;5.40;44.60
75821;DHT22;64454;51.984;9.838;2022-12-05T03:32:10;5.40;43.80
75821;DHT22;64454;51.984;9.838;2022-12-05T03:34:48;5.40;42.80
75821;DHT22;64454;51.984;9.838;2022-12-05T03:37:28;5.40;42.60
75821;DHT22;64454;51.984;9.838;2022-12-05T03:40:05;5.40;41.80
75821;DHT22;64454;51.984;9.838;2022-12-05T03:42:41;5.40;41.10
75821;DHT22;64454;51.984;9.838;2022-12-05T03:45:15;5.40;41.40
75821;DHT22;64454;51.984;9.838;2022-12-05T03:47:51;5.50;39.60
75821;DHT22;64454;51.984;9.838;2022-12-05T03:50:26;5.50;35.80
75821;DHT22;64454;51.984;9.838;2022-12-05T03:52:58;5.40;34.10
75821;DHT22;64454;51.984;9.838;2022-12-05T03:55:31;5.40;34.90
75821;DHT22;64454;51.984;9.838;2022-12-05T03:58:01;5.40;34.70
75821;DHT22;64454;51.984;9.838;2022-12-05T04:00:38;5.40;37.90
75821;DHT22;64454;51.984;9.838;2022-12-05T04:03:11;5.40;30.40
75821;DHT22;64454;51.984;9.838;2022-12-05T04:05:43;5.40;27.60
75821;DHT22;64454;51.984;9.838;2022-12-05T04:08:19;5.30;27.30
75821;DHT22;64454;51.984;9.838;2022-12-05T04:10:52;5.30;32.00
75821;DHT22;64454;51.984;9.838;2022-12-05T04:13:25;5.30;33.40
75821;DHT22;64454;51.984;9.838;2022-12-05T04:15:59;5.40;34.00
75821;DHT22;64454;51.984;9.838;2022-12-05T04:18:54;5.30;33.90
75821;DHT22;64454;51.984;9.838;2022-12-05T04:21:28;5.30;37.70
75821;DHT22;64454;51.984;9.838;2022-12-05T04:24:10;5.30;38.90
75821;DHT22;64454;51.984;9.838;2022-12-05T04:27:05;5.30;39.10
75821;DHT22;64454;51.984;9.838;2022-12-05T04:29:43;5.20;38.20
75821;DHT22;64454;51.984;9.838;2022-12-05T04:32:18;5.30;57.60
75821;DHT22;64454;51.984;9.838;2022-12-05T04:34:54;5.30;41.90
75821;DHT22;64454;51.984;9.838;2022-12-05T04:37:30;5.30;44.00
75821;DHT22;64454;51.984;9.838;2022-12-05T04:40:09;5.40;41.00
75821;DHT22;64454;51.984;9.838;2022-12-05T04:42:40;5.40;39.40
75821;DHT22;64454;51.984;9.838;2022-12-05T04:45:11;5.50;36.80
75821;DHT22;64454;51.984;9.838;2022-12-05T04:47:43;5.50;34.50
75821;DHT22;64454;51.984;9.838;2022-12-05T04:50:17;5.50;32.30
75821;DHT22;64454;51.984;9.838;2022-12-05T04:52:48;5.50;34.00
75821;DHT22;64454;51.984;9.838;2022-12-05T04:55:21;5.50;33.20
75821;DHT22;64454;51.984;9.838;2022-12-05T04:57:59;5.60;30.60
75821;DHT22;64454;51.984;9.838;2022-12-05T05:00:37;5.50;30.10
75821;DHT22;64454;51.984;9.838;2022-12-05T05:03:13;5.50;28.60
75821;DHT22;64454;51.984;9.838;2022-12-05T05:05:46;5.40;30.20
75821;DHT22;64454;51.984;9.838;2022-12-05T05:08:17;5.40;33.30
75821;DHT22;64454;51.984;9.838;2022-12-05T05:10:53;5.40;36.20
75821;DHT22;64454;51.984;9.838;2022-12-05T05:13:28;5.40;37.10
75821;DHT22;64454;51.984;9.838;2022-12-05T05:15:55;5.30;36.30
75821;DHT22;64454;51.984;9.838;2022-12-05T05:18:22;5.30;41.60
75821;DHT22;64454;51.984;9.838;2022-12-05T05:20:51;5.40;37.90
75821;DHT22;64454;51.984;9.838;2022-12-05T05:23:18;5.30;37.60
75821;DHT22;64454;51.984;9.838;2022-12-05T05:25:45;5.30;34.00
75821;DHT22;64454;51.984;9.838;2022-12-05T05:28:16;5.30;34.30
75821;DHT22;64454;51.984;9.838;2022-12-05T05:30:43;5.30;33.60
75821;DHT22;64454;51.984;9.838;2022-12-05T05:33:10;5.30;27.20
75821;DHT22;64454;51.984;9.838;2022-12-05T05:35:37;5.40;24.10
75821;DHT22;64454;51.984;9.838;2022-12-05T05:38:06;5.40;20.80
75821;DHT22;64454;51.984;9.838;2022-12-05T05:40:34;5.30;16.60
75821;DHT22;64454;51.984;9.838;2022-12-05T05:43:02;5.30;15.70
75821;DHT22;64454;51.984;9.838;2022-12-05T05:45:29;5.30;14.60
75821;DHT22;64454;51.984;9.838;2022-12-05T05:47:56;5.30;10.30
75821;DHT22;64454;51.984;9.838;2022-12-05T05:50:23;5.20;7.40
75821;DHT22;64454;51.984;9.838;2022-12-05T05:52:50;5.20;8.70
75821;DHT22;64454;51.984;9.838;2022-12-05T05:55:18;5.20;10.40
75821;DHT22;64454;51.984;9.838;2022-12-05T05:57:45;5.10;7.00
75821;DHT22;64454;51.984;9.838;2022-12-05T06:00:14;5.10;9.30
75821;DHT22;64454;51.984;9.838;2022-12-05T06:02:41;5.10;8.90
75821;DHT22;64454;51.984;9.838;2022-12-05T06:05:08;5.10;7.90
75821;DHT22;64454;51.984;9.838;2022-12-05T06:07:35;5.10;4.60
75821;DHT22;64454;51.984;9.838;2022-12-05T06:10:03;5.10;3.10
75821;DHT22;64454;51.984;9.838;2022-12-05T06:12:33;5.10;1.00
75821;DHT22;64454;51.984;9.838;2022-12-05T06:15:00;5.10;1.00
75821;DHT22;64454;51.984;9.838;2022-12-05T06:17:27;5.10;1.00
75821;DHT22;64454;51.984;9.838;2022-12-05T06:19:54;5.00;1.00
75821;DHT22;64454;51.984;9.838;2022-12-05T06:22:21;5.00;1.00
75821;DHT22;64454;51.984;9.838;2022-12-05T06:24:48;5.00;1.00
75821;DHT22;64454;51.984;9.838;2022-12-05T06:27:15;5.00;1.00
75821;DHT22;64454;51.984;9.838;2022-12-05T06:29:43;5.10;1.00
75821;DHT22;64454;51.984;9.838;2022-12-05T06:32:10;5.00;1.00
75821;DHT22;64454;51.984;9.838;2022-12-05T06:34:37;4.90;1.00
75821;DHT22;64454;51.984;9.838;2022-12-05T06:37:05;5.00;2.70
75821;DHT22;64454;51.984;9.838;2022-12-05T06:39:31;4.90;2.00
75821;DHT22;64454;51.984;9.838;2022-12-05T06:41:58;4.90;1.80
75821;DHT22;64454;51.984;9.838;2022-12-05T06:44:25;4.80;1.00
75821;DHT22;64454;51.984;9.838;2022-12-05T06:46:55;4.80;2.80
75821;DHT22;64454;51.984;9.838;2022-12-05T06:49:22;4.80;7.60
75821;DHT22;64454;51.984;9.838;2022-12-05T06:51:51;4.80;6.50
75821;DHT22;64454;51.984;9.838;2022-12-05T06:54:18;4.70;8.10
75821;DHT22;64454;51.984;9.838;2022-12-05T06:56:45;4.70;7.30
75821;DHT22;64454;51.984;9.838;2022-12-05T06:59:12;4.70;10.50
75821;DHT22;64454;51.984;9.838;2022-12-05T07:01:40;4.70;10.60
75821;DHT22;64454;51.984;9.838;2022-12-05T07:04:11;4.70;11.00
75821;DHT22;64454;51.984;9.838;2022-12-05T07:06:40;4.70;11.30
75821;DHT22;64454;51.984;9.838;2022-12-05T07:09:09;4.80;12.20
75821;DHT22;64454;51.984;9.838;2022-12-05T07:11:36;4.70;11.70
75821;DHT22;64454;51.984;9.838;2022-12-05T07:14:04;4.70;14.90
75821;DHT22;64454;51.984;9.838;2022-12-05T07:16:31;4.80;14.50
75821;DHT22;64454;51.984;9.838;2022-12-05T07:18:58;4.80;13.20
75821;DHT22;64454;51.984;9.838;2022-12-05T07:21:27;4.80;10.40
75821;DHT22;64454;51.984;9.838;2022-12-05T07:23:54;4.80;12.00
75821;DHT22;64454;51.984;9.838;2022-12-05T07:26:22;4.80;10.70
75821;DHT22;64454;51.984;9.838;2022-12-05T07:28:50;4.70;8.80
75821;DHT22;64454;51.984;9.838;2022-12-05T07:31:19;4.70;9.00
75821;DHT22;64454;51.984;9.838;2022-12-05T07:33:48;4.70;8.10
75821;DHT22;64454;51.984;9.838;2022-12-05T07:36:16;4.70;10.70
75821;DHT22;64454;51.984;9.838;2022-12-05T07:38:46;4.70;10.90
75821;DHT22;64454;51.984;9.838;2022-12-05T07:41:16;4.60;10.80
75821;DHT22;64454;51.984;9.838;2022-12-05T07:43:45;4.60;12.80
75821;DHT22;64454;51.984;9.838;2022-12-05T07:46:12;4.60;15.80
75821;DHT22;64454;51.984;9.838;2022-12-05T07:48:39;4.50;13.70
75821;DHT22;64454;51.984;9.838;2022-12-05T07:51:07;4.50;17.70
75821;DHT22;64454;51.984;9.838;2022-12-05T07:53:36;4.50;20.40
75821;DHT22;64454;51.984;9.838;2022-12-05T07:56:06;4.50;21.70
75821;DHT22;64454;51.984;9.838;2022-12-05T07:58:34;4.50;20.20
75821;DHT22;64454;51.984;9.838;2022-12-05T08:01:06;4.60;20.90
75821;DHT22;64454;51.984;9.838;2022-12-05T08:03:33;4.60;20.60
75821;DHT22;64454;51.984;9.838;2022-12-05T08:06:02;4.60;19.10
75821;DHT22;64454;51.984;9.838;2022-12-05T08:08:30;4.50;18.30
75821;DHT22;64454;51.984;9.838;2022-12-05T08:11:02;4.50;22.60
75821;DHT22;64454;51.984;9.838;2022-12-05T08:13:31;4.60;22.90
75821;DHT22;64454;51.984;9.838;2022-12-05T08:16:02;4.60;22.70
75821;DHT22;64454;51.984;9.838;2022-12-05T08:18:30;4.60;21.50
75821;DHT22;64454;51.984;9.838;2022-12-05T08:21:01;4.50;20.00
75821;DHT22;64454;51.984;9.838;2022-12-05T08:23:29;4.40;22.20
75821;DHT22;64454;51.984;9.838;2022-12-05T08:26:00;4.50;27.00
75821;DHT22;64454;51.984;9.838;2022-12-05T08:28:29;4.60;27.80
75821;DHT22;64454;51.984;9.838;2022-12-05T08:31:03;4.60;22.50
75821;DHT22;64454;51.984;9.838;2022-12-05T08:33:30;4.60;20.30
75821;DHT22;64454;51.984;9.838;2022-12-05T08:35:59;4.60;17.60
75821;DHT22;64454;51.984;9.838;2022-12-05T08:38:27;4.60;19.30
75821;DHT22;64454;51.984;9.838;2022-12-05T08:40:55;4.60;14.70
75821;DHT22;64454;51.984;9.838;2022-12-05T08:43:22;4.60;15.00
75821;DHT22;64454;51.984;9.838;2022-12-05T08:45:51;4.60;16.00
75821;DHT22;64454;51.984;9.838;2022-12-05T08:48:19;4.60;16.70
75821;DHT22;64454;51.984;9.838;2022-12-05T08:50:46;4.60;15.70
75821;DHT22;64454;51.984;9.838;2022-12-05T08:53:13;4.60;17.70
75821;DHT22;64454;51.984;9.838;2022-12-05T08:55:40;4.60;16.80
75821;DHT22;64454;51.984;9.838;2022-12-05T08:58:07;4.60;15.70
75821;DHT22;64454;51.984;9.838;2022-12-05T09:00:34;4.70;18.10
75821;DHT22;64454;51.984;9.838;2022-12-05T09:03:02;4.70;17.90
75821;DHT22;64454;51.984;9.838;2022-12-05T09:05:29;4.80;25.80
75821;DHT22;64454;51.984;9.838;2022-12-05T09:07:57;4.80;14.10
75821;DHT22;64454;51.984;9.838;2022-12-05T09:10:25;4.90;13.90
75821;DHT22;64454;51.984;9.838;2022-12-05T09:12:52;4.90;10.50
75821;DHT22;64454;51.984;9.838;2022-12-05T09:15:19;5.00;9.00
75821;DHT22;64454;51.984;9.838;2022-12-05T09:17:46;5.00;5.40
75821;DHT22;64454;51.984;9.838;2022-12-05T09:20:14;5.00;2.20
75821;DHT22;64454;51.984;9.838;2022-12-05T09:22:41;5.00;1.00
75821;DHT22;64454;51.984;9.838;2022-12-05T09:25:08;5.10;1.00
75821;DHT22;64454;51.984;9.838;2022-12-05T09:27:35;5.10;1.00
75821;DHT22;64454;51.984;9.838;2022-12-05T09:30:03;5.10;1.00
75821;DHT22;64454;51.984;9.838;2022-12-05T09:32:31;5.00;1.00
75821;DHT22;64454;51.984;9.838;2022-12-05T09:34:58;5.00;1.00
75821;DHT22;64454;51.984;9.838;2022-12-05T09:37:26;5.00;1.00
75821;DHT22;64454;51.984;9.838;2022-12-05T09:39:53;4.90;1.00
75821;DHT22;64454;51.984;9.838;2022-12-05T09:42:36;5.00;1.00
75821;DHT22;64454;51.984;9.838;2022-12-05T09:45:14;4.90;1.00
75821;DHT22;64454;51.984;9.838;2022-12-05T09:47:58;5.00;1.00
75821;DHT22;64454;51.984;9.838;2022-12-05T09:50:33;4.90;1.00
75821;DHT22;64454;51.984;9.838;2022-12-05T09:53:11;4.90;1.00
75821;DHT22;64454;51.984;9.838;2022-12-05T09:55:46;4.90;1.00
75821;DHT22;64454;51.984;9.838;2022-12-05T09:58:25;4.90;1.00
75821;DHT22;64454;51.984;9.838;2022-12-05T10:01:01;4.90;1.00
75821;DHT22;64454;51.984;9.838;2022-12-05T10:03:37;4.90;1.00
75821;DHT22;64454;51.984;9.838;2022-12-05T10:06:12;4.90;1.00
75821;DHT22;64454;51.984;9.838;2022-12-05T10:09:03;5.00;1.00
75821;DHT22;64454;51.984;9.838;2022-12-05T10:11:45;5.00;1.00
75821;DHT22;64454;51.984;9.838;2022-12-05T10:14:20;5.10;1.00
75821;DHT22;64454;51.984;9.838;2022-12-05T10:16:56;5.10;1.00
75821;DHT22;64454;51.984;9.838;2022-12-05T10:19:30;5.20;1.00
75821;DHT22;64454;51.984;9.838;2022-12-05T10:22:06;5.30;1.00
75821;DHT22;64454;51.984;9.838;2022-12-05T10:24:42;5.40;1.00
75821;DHT22;64454;51.984;9.838;2022-12-05T10:27:17;5.40;1.00
75821;DHT22;64454;51.984;9.838;2022-12-05T10:29:52;5.50;1.00
75821;DHT22;64454;51.984;9.838;2022-12-05T10:32:26;5.50;1.00
75821;DHT22;64454;51.984;9.838;2022-12-05T10:35:05;5.50;1.00
75821;DHT22;64454;51.984;9.838;2022-12-05T10:37:42;5.50;1.00
75821;DHT22;64454;51.984;9.838;2022-12-05T10:40:13;5.50;1.00
75821;DHT22;64454;51.984;9.838;2022-12-05T10:42:41;5.60;1.00
75821;DHT22;64454;51.984;9.838;2022-12-05T10:45:15;5.60;1.00
75821;DHT22;64454;51.984;9.838;2022-12-05T10:47:45;5.60;1.00
75821;DHT22;64454;51.984;9.838;2022-12-05T10:50:22;5.70;1.00
75821;DHT22;64454;51.984;9.838;2022-12-05T10:52:52;5.70;1.00
75821;DHT22;64454;51.984;9.838;2022-12-05T10:55:27;5.70;1.00
75821;DHT22;64454;51.984;9.838;2022-12-05T10:58:12;5.80;1.00
75821;DHT22;64454;51.984;9.838;2022-12-05T11:00:41;5.80;1.00
75821;DHT22;64454;51.984;9.838;2022-12-05T11:03:26;5.90;1.00
75821;DHT22;64454;51.984;9.838;2022-12-05T11:05:56;6.00;1.00
75821;DHT22;64454;51.984;9.838;2022-12-05T11:08:27;6.00;1.00
75821;DHT22;64454;51.984;9.838;2022-12-05T11:11:04;6.00;1.00
75821;DHT22;64454;51.984;9.838;2022-12-05T11:13:33;6.00;1.00
75821;DHT22;64454;51.984;9.838;2022-12-05T11:16:00;6.00;1.00
75821;DHT22;64454;51.984;9.838;2022-12-05T11:18:31;6.00;1.00
75821;DHT22;64454;51.984;9.838;2022-12-05T11:21:10;6.10;1.00
75821;DHT22;64454;51.984;9.838;2022-12-05T11:23:39;6.20;1.00
75821;DHT22;64454;51.984;9.838;2022-12-05T11:26:16;6.30;1.00
75821;DHT22;64454;51.984;9.838;2022-12-05T11:28:57;6.30;1.00
75821;DHT22;64454;51.984;9.838;2022-12-05T11:31:26;6.40;1.00
75821;DHT22;64454;51.984;9.838;2022-12-05T11:34:01;6.40;1.00
75821;DHT22;64454;51.984;9.838;2022-12-05T11:36:38;6.40;1.00
75821;DHT22;64454;51.984;9.838;2022-12-05T11:39:10;6.50;1.00
75821;DHT22;64454;51.984;9.838;2022-12-05T11:44:49;6.30;1.00
75821;DHT22;64454;51.984;9.838;2022-12-05T11:47:44;6.20;1.00
75821;DHT22;64454;51.984;9.838;2022-12-05T11:50:36;6.20;1.00
75821;DHT22;64454;51.984;9.838;2022-12-05T11:53:29;6.20;1.00
75821;DHT22;64454;51.984;9.838;2022-12-05T11:56:17;6.30;1.00
75821;DHT22;64454;51.984;9.838;2022-12-05T12:02:19;6.30;1.00
75821;DHT22;64454;51.984;9.838;2022-12-05T12:05:04;6.30;1.00
75821;DHT22;64454;51.984;9.838;2022-12-05T12:07:51;6.30;1.00
75821;DHT22;64454;51.984;9.838;2022-12-05T12:10:30;6.30;1.00
75821;DHT22;64454;51.984;9.838;2022-12-05T12:13:14;6.30;1.00
75821;DHT22;64454;51.984;9.838;2022-12-05T12:16:00;6.40;1.00
75821;DHT22;64454;51.984;9.838;2022-12-05T12:19:02;6.40;1.00
75821;DHT22;64454;51.984;9.838;2022-12-05T12:22:33;6.40;1.00
75821;DHT22;64454;51.984;9.838;2022-12-05T12:25:24;6.40;1.00
75821;DHT22;64454;51.984;9.838;2022-12-05T12:28:06;6.50;1.00
75821;DHT22;64454;51.984;9.838;2022-12-05T12:30:57;6.50;1.00
75821;DHT22;64454;51.984;9.838;2022-12-05T12:33:34;6.50;1.00
75821;DHT22;64454;51.984;9.838;2022-12-05T12:36:12;6.60;1.00
75821;DHT22;64454;51.984;9.838;2022-12-05T12:39:09;6.50;1.00
75821;DHT22;64454;51.984;9.838;2022-12-05T12:41:57;6.40;1.00
75821;DHT22;64454;51.984;9.838;2022-12-05T12:48:11;6.40;1.00
75821;DHT22;64454;51.984;9.838;2022-12-05T12:50:52;6.40;1.00
75821;DHT22;64454;51.984;9.838;2022-12-05T12:53:39;6.50;1.00
75821;DHT22;64454;51.984;9.838;2022-12-05T12:56:30;6.50;1.00
75821;DHT22;64454;51.984;9.838;2022-12-05T12:59:16;6.60;1.00
75821;DHT22;64454;51.984;9.838;2022-12-05T13:01:59;6.50;1.00
75821;DHT22;64454;51.984;9.838;2022-12-05T13:04:46;6.50;1.00
75821;DHT22;64454;51.984;9.838;2022-12-05T13:07:18;6.40;1.00
75821;DHT22;64454;51.984;9.838;2022-12-05T13:09:52;6.40;1.00
75821;DHT22;64454;51.984;9.838;2022-12-05T13:12:26;6.40;1.00
75821;DHT22;64454;51.984;9.838;2022-12-05T13:15:00;6.50;1.00
75821;DHT22;64454;51.984;9.838;2022-12-05T13:17:31;6.50;1.00
75821;DHT22;64454;51.984;9.838;2022-12-05T13:20:00;6.50;1.00
75821;DHT22;64454;51.984;9.838;2022-12-05T13:22:28;6.50;1.00
75821;DHT22;64454;51.984;9.838;2022-12-05T13:24:55;6.60;1.00
75821;DHT22;64454;51.984;9.838;2022-12-05T13:27:24;6.60;1.00
75821;DHT22;64454;51.984;9.838;2022-12-05T13:29:54;6.50;1.00
75821;DHT22;64454;51.984;9.838;2022-12-05T13:32:29;6.50;1.00
75821;DHT22;64454;51.984;9.838;2022-12-05T13:35:02;6.50;1.00
75821;DHT22;64454;51.984;9.838;2022-12-05T13:37:35;6.40;1.00
75821;DHT22;64454;51.984;9.838;2022-12-05T13:40:28;6.50;1.00
75821;DHT22;64454;51.984;9.838;2022-12-05T13:43:17;6.50;1.00
75821;DHT22;64454;51.984;9.838;2022-12-05T13:46:05;6.40;1.00
75821;DHT22;64454;51.984;9.838;2022-12-05T13:48:38;6.30;1.00
75821;DHT22;64454;51.984;9.838;2022-12-05T13:51:11;6.20;1.00
75821;DHT22;64454;51.984;9.838;2022-12-05T13:53:48;6.20;1.00
75821;DHT22;64454;51.984;9.838;2022-12-05T13:56:27;6.20;1.00
75821;DHT22;64454;51.984;9.838;2022-12-05T14:02:51;6.00;1.00
75821;DHT22;64454;51.984;9.838;2022-12-05T14:05:42;6.00;1.00
75821;DHT22;64454;51.984;9.838;2022-12-05T14:11:24;5.90;1.00
75821;DHT22;64454;51.984;9.838;2022-12-05T14:13:51;5.90;1.00
75821;DHT22;64454;51.984;9.838;2022-12-05T14:16:46;5.90;1.00
75821;DHT22;64454;51.984;9.838;2022-12-05T14:19:52;5.90;1.00
75821;DHT22;64454;51.984;9.838;2022-12-05T14:22:42;5.90;1.00
75821;DHT22;64454;51.984;9.838;2022-12-05T14:25:40;5.80;1.00
75821;DHT22;64454;51.984;9.838;2022-12-05T14:28:33;5.80;1.00
75821;DHT22;64454;51.984;9.838;2022-12-05T14:31:20;5.80;1.00
75821;DHT22;64454;51.984;9.838;2022-12-05T14:34:08;5.70;1.00
75821;DHT22;64454;51.984;9.838;2022-12-05T14:36:55;5.70;1.00
75821;DHT22;64454;51.984;9.838;2022-12-05T14:39:39;5.60;1.00
75821;DHT22;64454;51.984;9.838;2022-12-05T14:42:22;5.60;1.00
75821;DHT22;64454;51.984;9.838;2022-12-05T14:44:57;5.50;1.00
75821;DHT22;64454;51.984;9.838;2022-12-05T14:47:29;5.40;1.00
75821;DHT22;64454;51.984;9.838;2022-12-05T14:49:59;5.40;1.00
75821;DHT22;64454;51.984;9.838;2022-12-05T14:53:21;5.30;1.00
75821;DHT22;64454;51.984;9.838;2022-12-05T14:55:54;5.30;1.00
75821;DHT22;64454;51.984;9.838;2022-12-05T14:58:32;5.30;1.00
75821;DHT22;64454;51.984;9.838;2022-12-05T15:01:06;5.30;1.00
75821;DHT22;64454;51.984;9.838;2022-12-05T15:03:42;5.20;1.00
75821;DHT22;64454;51.984;9.838;2022-12-05T15:06:24;5.30;1.00
75821;DHT22;64454;51.984;9.838;2022-12-05T15:08:55;5.30;1.00
75821;DHT22;64454;51.984;9.838;2022-12-05T15:11:24;5.30;1.00
75821;DHT22;64454;51.984;9.838;2022-12-05T15:14:00;5.30;1.00
75821;DHT22;64454;51.984;9.838;2022-12-05T15:16:42;5.30;1.00
75821;DHT22;64454;51.984;9.838;2022-12-05T15:19:14;5.30;1.00
75821;DHT22;64454;51.984;9.838;2022-12-05T15:21:46;5.30;1.00
75821;DHT22;64454;51.984;9.838;2022-12-05T15:24:17;5.30;1.00
75821;DHT22;64454;51.984;9.838;2022-12-05T15:26:47;5.30;1.00
75821;DHT22;64454;51.984;9.838;2022-12-05T15:29:23;5.30;1.00
75821;DHT22;64454;51.984;9.838;2022-12-05T15:31:54;5.30;1.00
75821;DHT22;64454;51.984;9.838;2022-12-05T15:34:26;5.30;1.00
75821;DHT22;64454;51.984;9.838;2022-12-05T15:36:58;5.30;1.00
75821;DHT22;64454;51.984;9.838;2022-12-05T15:39:49;5.30;2.80
75821;DHT22;64454;51.984;9.838;2022-12-05T15:42:18;5.40;1.00
75821;DHT22;64454;51.984;9.838;2022-12-05T15:44:47;5.40;1.00
75821;DHT22;64454;51.984;9.838;2022-12-05T15:47:19;5.40;1.00
75821;DHT22;64454;51.984;9.838;2022-12-05T15:49:49;5.40;1.00
75821;DHT22;64454;51.984;9.838;2022-12-05T15:52:25;5.40;1.00
75821;DHT22;64454;51.984;9.838;2022-12-05T15:54:57;5.40;1.00
75821;DHT22;64454;51.984;9.838;2022-12-05T15:57:33;5.40;1.00
75821;DHT22;64454;51.984;9.838;2022-12-05T16:00:11;5.40;1.00
75821;DHT22;64454;51.984;9.838;2022-12-05T16:02:44;5.40;1.00
75821;DHT22;64454;51.984;9.838;2022-12-05T16:05:21;5.30;1.00
75821;DHT22;64454;51.984;9.838;2022-12-05T16:07:50;5.30;1.00
75821;DHT22;64454;51.984;9.838;2022-12-05T16:10:19;5.30;1.00
75821;DHT22;64454;51.984;9.838;2022-12-05T16:12:48;5.30;1.00
75821;DHT22;64454;51.984;9.838;2022-12-05T16:15:21;5.30;1.00
75821;DHT22;64454;51.984;9.838;2022-12-05T16:17:53;5.30;1.00
75821;DHT22;64454;51.984;9.838;2022-12-05T16:20:29;5.20;1.00
75821;DHT22;64454;51.984;9.838;2022-12-05T16:23:00;5.10;1.00
75821;DHT22;64454;51.984;9.838;2022-12-05T16:25:30;5.10;1.00
75821;DHT22;64454;51.984;9.838;2022-12-05T16:28:02;5.10;1.00
75821;DHT22;64454;51.984;9.838;2022-12-05T16:30:52;5.10;1.00
75821;DHT22;64454;51.984;9.838;2022-12-05T16:33:23;5.10;1.00
75821;DHT22;64454;51.984;9.838;2022-12-05T16:35:51;5.10;1.30
75821;DHT22;64454;51.984;9.838;2022-12-05T16:38:21;5.00;2.80
75821;DHT22;64454;51.984;9.838;2022-12-05T16:40:53;5.10;4.90
75821;DHT22;64454;51.984;9.838;2022-12-05T16:43:41;5.10;3.80
75821;DHT22;64454;51.984;9.838;2022-12-05T16:46:41;5.00;4.40
75821;DHT22;64454;51.984;9.838;2022-12-05T16:49:18;5.00;5.20
75821;DHT22;64454;51.984;9.838;2022-12-05T16:52:02;5.00;6.50
75821;DHT22;64454;51.984;9.838;2022-12-05T16:54:39;5.00;5.80
75821;DHT22;64454;51.984;9.838;2022-12-05T16:57:10;5.00;5.90
75821;DHT22;64454;51.984;9.838;2022-12-05T16:59:39;4.90;6.50